createdAt,value
2019-05-14T00:01:04.056Z,103108.28
2019-05-14T00:03:34.273Z,103112.59
2019-05-14T00:06:04.615Z,103108.94
2019-05-14T00:08:34.819Z,103115.70
2019-05-14T00:11:05.058Z,103103.58
2019-05-14T00:13:35.181Z,103102.13
2019-05-14T00:16:06.204Z,103107.52
2019-05-14T00:18:37.339Z,103107.35
2019-05-14T00:21:07.559Z,103108.00
2019-05-14T00:23:42.459Z,103106.98
2019-05-14T00:26:13.308Z,103107.47
2019-05-14T00:28:43.488Z,103107.95
2019-05-14T00:31:14.574Z,103107.69
2019-05-14T00:33:45.764Z,103108.88
2019-05-14T00:36:16.727Z,103110.08
2019-05-14T00:38:46.816Z,103112.53
2019-05-14T00:41:17.170Z,103110.55
2019-05-14T00:43:47.654Z,103105.81
2019-05-14T00:46:17.839Z,103104.65
2019-05-14T00:48:47.958Z,103105.28
2019-05-14T00:51:18.080Z,103107.68
2019-05-14T00:53:48.302Z,103100.81
2019-05-14T00:56:21.645Z,103110.97
2019-05-14T00:58:52.339Z,103106.56
2019-05-14T01:01:23.292Z,103096.03
2019-05-14T01:03:53.444Z,103101.80
2019-05-14T01:06:26.516Z,103097.85
2019-05-14T01:08:56.650Z,103103.84
2019-05-14T01:11:26.774Z,103100.28
2019-05-14T01:13:57.279Z,103097.52
2019-05-14T01:16:27.748Z,103103.52
2019-05-14T01:18:58.642Z,103098.97
2019-05-14T01:21:31.041Z,103099.37
2019-05-14T01:24:02.021Z,103102.53
2019-05-14T01:26:32.307Z,103088.10
2019-05-14T01:29:02.403Z,103097.41
2019-05-14T01:31:32.517Z,103090.25
2019-05-14T01:34:02.638Z,103091.75
2019-05-14T01:36:32.822Z,103089.85
2019-05-14T01:39:04.320Z,103087.57
2019-05-14T01:41:34.495Z,103089.32
2019-05-14T01:44:04.592Z,103083.91
2019-05-14T01:46:34.717Z,103080.48
2019-05-14T01:49:04.828Z,103076.59
2019-05-14T01:51:34.979Z,103076.53
2019-05-14T01:54:08.726Z,103078.59
2019-05-14T01:56:38.915Z,103076.63
2019-05-14T01:59:09.042Z,103073.65
2019-05-14T02:01:41.479Z,103074.45
2019-05-14T02:04:11.611Z,103073.80
2019-05-14T02:06:42.061Z,103069.28
2019-05-14T02:09:12.254Z,103069.86
2019-05-14T02:11:42.372Z,103071.31
2019-05-14T02:14:12.502Z,103069.41
2019-05-14T02:16:42.603Z,103066.09
2019-05-14T02:19:12.838Z,103065.75
2019-05-14T02:21:42.994Z,103064.07
2019-05-14T02:24:15.630Z,103069.98
2019-05-14T02:26:47.988Z,103074.03
2019-05-14T02:29:18.243Z,103062.09
2019-05-14T02:31:50.387Z,103063.04
2019-05-14T02:34:21.026Z,103060.55
2019-05-14T02:36:51.163Z,103055.38
2019-05-14T02:39:21.280Z,103061.19
2019-05-14T02:41:52.191Z,103061.19
2019-05-14T02:44:29.479Z,103070.63
2019-05-14T02:47:01.335Z,103060.23
2019-05-14T02:49:39.816Z,103066.20
2019-05-14T02:52:11.024Z,103065.09
2019-05-14T02:54:41.139Z,103058.45
2019-05-14T02:57:11.236Z,103055.57
2019-05-14T02:59:41.398Z,103063.87
2019-05-14T03:02:11.795Z,103066.06
2019-05-14T03:04:42.243Z,103060.08
2019-05-14T03:07:19.171Z,103062.36
2019-05-14T03:09:50.467Z,103061.20
2019-05-14T03:12:23.272Z,103066.84
2019-05-14T03:14:53.395Z,103068.11
2019-05-14T03:17:23.480Z,103065.67
2019-05-14T03:20:00.309Z,103063.53
2019-05-14T03:22:46.223Z,103070.16
2019-05-14T03:25:10.104Z,103062.56
2019-05-14T03:27:41.167Z,103062.69
2019-05-14T03:30:13.563Z,103065.91
2019-05-14T03:32:44.030Z,103066.36
2019-05-14T03:35:15.689Z,103067.53
2019-05-14T03:37:51.279Z,103065.48
2019-05-14T03:40:21.600Z,103068.95
2019-05-14T03:42:52.238Z,103063.14
2019-05-14T03:45:31.459Z,103061.73
2019-05-14T03:48:03.895Z,103065.48
2019-05-14T03:50:34.376Z,103068.52
2019-05-14T03:53:05.559Z,103076.45
2019-05-14T03:55:40.136Z,103072.00
2019-05-14T03:58:09.884Z,103075.42
2019-05-14T04:00:59.972Z,103072.80
2019-05-14T04:03:39.841Z,103081.86
2019-05-14T04:06:11.743Z,103072.33
2019-05-14T04:08:42.945Z,103072.66
2019-05-14T04:11:14.971Z,103068.35
2019-05-14T04:13:54.766Z,103065.23
2019-05-14T04:17:03.878Z,103064.53
2019-05-14T04:19:24.243Z,103062.61
2019-05-14T04:21:59.928Z,103056.21
2019-05-14T04:24:36.725Z,103060.25
2019-05-14T04:27:20.269Z,103057.04
2019-05-14T04:29:59.745Z,103065.33
2019-05-14T04:32:42.409Z,103064.27
2019-05-14T04:35:12.848Z,103070.36
2019-05-14T04:37:45.063Z,103077.04
2019-05-14T04:40:18.714Z,103072.89
2019-05-14T04:42:50.440Z,103072.64
2019-05-14T04:45:21.177Z,103073.09
2019-05-14T04:47:51.603Z,103072.36
2019-05-14T04:50:25.683Z,103066.80
2019-05-14T04:52:59.893Z,103071.67
2019-05-14T04:55:31.063Z,103074.06
2019-05-14T04:58:03.530Z,103079.09
2019-05-14T05:00:38.916Z,103081.22
2019-05-14T05:03:12.327Z,103080.44
2019-05-14T05:05:40.104Z,103086.79
2019-05-14T05:08:14.547Z,103086.10
2019-05-14T05:10:44.101Z,103089.95
2019-05-14T05:13:14.223Z,103085.95
2019-05-14T05:15:44.342Z,103089.80
2019-05-14T05:18:14.829Z,103086.33
2019-05-14T05:20:45.947Z,103087.72
2019-05-14T05:23:15.981Z,103082.05
2019-05-14T05:25:46.187Z,103089.27
2019-05-14T05:28:19.082Z,103092.45
2019-05-14T05:30:49.250Z,103095.11
2019-05-14T05:33:19.389Z,103098.85
2019-05-14T05:35:49.511Z,103092.57
2019-05-14T05:38:19.681Z,103095.20
2019-05-14T05:40:49.823Z,103096.36
2019-05-14T05:43:20.012Z,103091.92
2019-05-14T05:45:50.200Z,103095.71
2019-05-14T05:48:23.244Z,103096.06
2019-05-14T05:50:53.368Z,103098.75
2019-05-14T05:53:23.448Z,103094.61
2019-05-14T05:55:53.608Z,103098.17
2019-05-14T05:58:23.672Z,103089.86
2019-05-14T06:00:58.773Z,103079.77
2019-05-14T06:03:30.056Z,103085.69
2019-05-14T06:06:01.027Z,103080.99
2019-05-14T06:08:31.122Z,103080.72
2019-05-14T06:11:01.246Z,103083.34
2019-05-14T06:13:31.402Z,103072.47
2019-05-14T06:16:01.522Z,103070.48
2019-05-14T06:18:34.303Z,103073.41
2019-05-14T06:21:03.471Z,103068.89
2019-05-14T06:23:33.632Z,103068.89
2019-05-14T06:26:04.204Z,103070.36
2019-05-14T06:28:34.343Z,103071.52
2019-05-14T06:31:09.581Z,103074.23
2019-05-14T06:33:49.129Z,103077.07
2019-05-14T06:36:21.864Z,103070.41
2019-05-14T06:38:52.483Z,103069.42
2019-05-14T06:41:39.872Z,103070.05
2019-05-14T06:44:09.191Z,103071.08
2019-05-14T06:46:41.500Z,103070.81
2019-05-14T06:49:11.799Z,103073.02
2019-05-14T06:51:41.910Z,103070.45
2019-05-14T06:54:12.387Z,103070.77
2019-05-14T06:56:42.617Z,103071.00
2019-05-14T06:59:12.974Z,103073.82
2019-05-14T07:01:44.182Z,103072.26
2019-05-14T07:07:04.749Z,103072.09
2019-05-14T07:09:34.923Z,103067.88
2019-05-14T07:12:05.182Z,103071.31
2019-05-14T07:14:35.842Z,103068.32
2019-05-14T07:17:08.844Z,103065.36
2019-05-14T07:19:39.042Z,103058.42
2019-05-14T07:22:11.549Z,103060.81
2019-05-14T07:24:42.721Z,103060.41
2019-05-14T07:27:13.495Z,103059.76
2019-05-14T07:29:43.854Z,103058.55
2019-05-14T07:32:15.575Z,103057.37
2019-05-14T07:34:48.035Z,103057.05
2019-05-14T07:37:18.461Z,103061.98
2019-05-14T07:39:49.155Z,103061.70
2019-05-14T07:42:34.602Z,103058.65
2019-05-14T07:45:09.989Z,103057.51
2019-05-14T07:47:41.630Z,103060.79
2019-05-14T07:50:13.796Z,103057.94
2019-05-14T07:52:45.632Z,103055.83
2019-05-14T07:55:18.352Z,103051.54
2019-05-14T07:57:48.255Z,103052.59
2019-05-14T08:00:19.246Z,103045.60
2019-05-14T08:02:51.088Z,103039.04
2019-05-14T08:05:21.318Z,103046.33
2019-05-14T08:07:51.468Z,103039.04
2019-05-14T08:10:22.213Z,103037.33
2019-05-14T08:12:53.522Z,103037.35
2019-05-14T08:15:25.238Z,103030.85
2019-05-14T08:17:58.643Z,103025.27
2019-05-14T08:20:28.800Z,103022.63
2019-05-14T08:22:59.037Z,103016.05
2019-05-14T08:25:29.221Z,103007.63
2019-05-14T08:27:59.669Z,103008.19
2019-05-14T08:30:31.650Z,102996.27
2019-05-14T08:33:02.329Z,103000.44
2019-05-14T08:35:34.109Z,102997.56
2019-05-14T08:38:08.379Z,102989.53
2019-05-14T08:40:38.212Z,102989.86
2019-05-14T08:43:08.668Z,102989.59
2019-05-14T08:45:39.315Z,102991.88
2019-05-14T08:48:10.096Z,102983.05
2019-05-14T08:50:40.274Z,102980.66
2019-05-14T08:53:10.441Z,102980.80
2019-05-14T08:55:40.663Z,102982.76
2019-05-14T08:58:13.787Z,102978.38
2019-05-14T09:00:43.920Z,102986.08
2019-05-14T09:03:14.389Z,102978.60
2019-05-14T09:05:44.639Z,102970.22
2019-05-14T09:08:15.190Z,102955.55
2019-05-14T09:10:45.379Z,102959.53
2019-05-14T09:13:18.207Z,102954.23
2019-05-14T09:15:48.974Z,102948.89
2019-05-14T09:18:19.975Z,102952.44
2019-05-14T09:20:50.133Z,102947.06
2019-05-14T09:23:20.409Z,102950.15
2019-05-14T09:25:53.317Z,102952.81
2019-05-14T09:28:28.507Z,102949.70
2019-05-14T09:30:59.883Z,102943.91
2019-05-14T09:33:30.255Z,102931.93
2019-05-14T09:36:14.710Z,102933.78
2019-05-14T09:38:34.305Z,102924.46
2019-05-14T09:41:11.083Z,102919.08
2019-05-14T09:43:39.020Z,102926.63
2019-05-14T09:46:09.151Z,102920.86
2019-05-14T09:48:39.450Z,102924.84
2019-05-14T09:51:09.592Z,102926.17
2019-05-14T09:53:42.051Z,102918.23
2019-05-14T09:56:12.246Z,102917.77
2019-05-14T09:58:45.084Z,102916.45
2019-05-14T10:01:15.823Z,102922.66
2019-05-14T10:03:46.054Z,102914.64
2019-05-14T10:06:16.224Z,102912.80
2019-05-14T10:08:48.606Z,102904.22
2019-05-14T10:11:18.363Z,102898.78
2019-05-14T10:13:48.610Z,102910.23
2019-05-14T10:16:19.171Z,102900.30
2019-05-14T10:18:52.723Z,102889.53
2019-05-14T10:21:21.361Z,102876.31
2019-05-14T10:23:51.653Z,102888.97
2019-05-14T10:26:24.864Z,102892.58
2019-05-14T10:28:54.932Z,102887.03
2019-05-14T10:31:25.453Z,102876.93
2019-05-14T10:33:55.865Z,102880.07
2019-05-14T10:36:29.790Z,102877.64
2019-05-14T10:38:59.000Z,102871.88
2019-05-14T10:41:29.363Z,102874.98
2019-05-14T10:43:59.773Z,102873.30
2019-05-14T10:46:30.995Z,102878.15
2019-05-14T10:49:16.511Z,102879.05
2019-05-14T10:51:32.955Z,102871.03
2019-05-14T10:54:21.101Z,102858.43
2019-05-14T10:56:38.005Z,102865.08
2019-05-14T10:59:09.497Z,102857.66
2019-05-14T11:01:39.809Z,102853.75
2019-05-14T11:04:10.058Z,102855.08
2019-05-14T11:06:40.274Z,102850.63
2019-05-14T11:09:11.522Z,102847.04
2019-05-14T11:11:41.975Z,102847.50
2019-05-14T11:14:12.063Z,102842.21
2019-05-14T11:16:43.355Z,102846.68
2019-05-14T11:19:14.505Z,102837.27
2019-05-14T11:21:45.367Z,102821.61
2019-05-14T11:24:15.593Z,102830.96
2019-05-14T11:26:48.551Z,102815.41
2019-05-14T11:29:18.554Z,102825.20
2019-05-14T11:31:49.164Z,102819.99
2019-05-14T11:34:23.287Z,102826.14
2019-05-14T11:36:58.727Z,102821.30
2019-05-14T11:39:28.952Z,102821.74
2019-05-14T11:42:00.986Z,102817.33
2019-05-14T11:44:32.232Z,102811.12
2019-05-14T11:47:02.904Z,102807.53
2019-05-14T11:49:34.211Z,102801.80
2019-05-14T11:52:08.633Z,102804.48
2019-05-14T11:54:40.915Z,102812.05
2019-05-14T11:57:11.686Z,102810.72
2019-05-14T11:59:41.716Z,102802.69
2019-05-14T12:02:13.175Z,102812.87
2019-05-14T12:04:43.361Z,102800.33
2019-05-14T12:07:13.670Z,102801.48
2019-05-14T12:09:43.849Z,102788.55
2019-05-14T12:12:14.592Z,102793.81
2019-05-14T12:14:48.840Z,102785.95
2019-05-14T12:17:22.019Z,102784.28
2019-05-14T12:19:52.163Z,102775.40
2019-05-14T12:22:23.792Z,102778.02
2019-05-14T12:24:53.945Z,102771.17
2019-05-14T12:27:24.196Z,102767.02
2019-05-14T12:29:54.327Z,102754.37
2019-05-14T12:32:24.489Z,102757.84
2019-05-14T12:34:54.674Z,102757.66
2019-05-14T12:37:28.922Z,102753.88
2019-05-14T12:40:02.519Z,102748.83
2019-05-14T12:42:32.936Z,102747.70
2019-05-14T12:45:03.666Z,102737.19
2019-05-14T12:47:34.215Z,102737.48
2019-05-14T12:50:05.468Z,102738.82
2019-05-14T12:52:35.888Z,102730.35
2019-05-14T12:55:09.643Z,102720.94
2019-05-14T12:57:39.942Z,102727.94
2019-05-14T13:00:10.602Z,102716.75
2019-05-14T13:02:40.963Z,102712.13
2019-05-14T13:05:11.252Z,102713.37
2019-05-14T13:07:41.912Z,102719.48
2019-05-14T13:10:12.211Z,102714.90
2019-05-14T13:12:42.342Z,102706.78
2019-05-14T13:15:12.868Z,102701.64
2019-05-14T13:17:43.024Z,102705.22
2019-05-14T13:20:14.090Z,102694.56
2019-05-14T13:22:46.532Z,102693.20
2019-05-14T13:25:18.784Z,102677.98
2019-05-14T13:27:49.514Z,102673.38
2019-05-14T13:30:19.755Z,102668.42
2019-05-14T13:32:51.128Z,102670.57
2019-05-14T13:35:24.094Z,102681.88
2019-05-14T13:37:54.902Z,102676.50
2019-05-14T13:40:24.950Z,102676.40
2019-05-14T13:42:55.268Z,102668.61
2019-05-14T13:45:25.455Z,102664.47
2019-05-14T13:47:55.676Z,102660.95
2019-05-14T13:50:29.051Z,102651.36
2019-05-14T13:53:02.944Z,102657.00
2019-05-14T13:55:30.701Z,102639.91
2019-05-14T13:58:01.260Z,102645.20
2019-05-14T14:00:40.858Z,102634.89
2019-05-14T14:03:12.138Z,102643.47
2019-05-14T14:05:42.355Z,102636.07
2019-05-14T14:08:14.247Z,102634.36
2019-05-14T14:10:46.548Z,102632.56
2019-05-14T14:13:20.060Z,102629.34
2019-05-14T14:16:00.549Z,102627.91
2019-05-14T14:18:31.732Z,102618.26
2019-05-14T14:21:01.885Z,102622.07
2019-05-14T14:23:32.109Z,102615.07
2019-05-14T14:26:02.314Z,102607.85
2019-05-14T14:28:32.503Z,102603.55
2019-05-14T14:31:02.647Z,102595.49
2019-05-14T14:33:34.457Z,102599.23
2019-05-14T14:36:05.666Z,102591.72
2019-05-14T14:38:36.235Z,102598.41
2019-05-14T14:41:11.630Z,102588.53
2019-05-14T14:44:00.724Z,102585.05
2019-05-14T14:46:30.852Z,102567.95
2019-05-14T14:49:03.321Z,102570.83
2019-05-14T14:51:41.849Z,102577.05
2019-05-14T14:54:16.180Z,102573.40
2019-05-14T14:56:45.768Z,102572.48
2019-05-14T14:59:18.920Z,102572.09
2019-05-14T15:01:50.272Z,102575.89
2019-05-14T15:04:20.659Z,102577.31
2019-05-14T15:06:51.419Z,102582.09
2019-05-14T15:09:21.893Z,102577.48
2019-05-14T15:11:52.874Z,102561.73
2019-05-14T15:14:23.092Z,102552.70
2019-05-14T15:16:54.139Z,102548.17
2019-05-14T15:19:25.532Z,102540.70
2019-05-14T15:21:59.426Z,102540.95
2019-05-14T15:24:39.911Z,102540.76
2019-05-14T15:27:23.913Z,102532.31
2019-05-14T15:29:52.987Z,102533.56
2019-05-14T15:32:31.155Z,102544.14
2019-05-14T15:35:02.735Z,102545.78
2019-05-14T15:37:32.961Z,102545.37
2019-05-14T15:40:11.214Z,102541.63
2019-05-14T15:42:41.958Z,102534.19
2019-05-14T15:45:13.004Z,102541.10
2019-05-14T15:47:43.411Z,102542.70
2019-05-14T15:50:20.045Z,102537.88
2019-05-14T15:52:51.346Z,102536.61
2019-05-14T15:55:21.943Z,102542.40
2019-05-14T15:57:54.524Z,102537.32
2019-05-14T16:00:29.012Z,102527.03
2019-05-14T16:03:00.251Z,102515.25
2019-05-14T16:05:30.667Z,102518.58
2019-05-14T16:08:00.838Z,102511.56
2019-05-14T16:10:35.874Z,102508.33
2019-05-14T16:13:14.619Z,102505.89
2019-05-14T16:15:44.975Z,102511.16
2019-05-14T16:18:19.759Z,102520.33
2019-05-14T16:20:49.915Z,102516.68
2019-05-14T16:23:21.284Z,102504.11
2019-05-14T16:25:51.527Z,102507.36
2019-05-14T16:28:21.770Z,102507.36
2019-05-14T16:30:53.340Z,102494.51
2019-05-14T16:33:29.699Z,102494.51
2019-05-14T16:36:00.071Z,102492.25
2019-05-14T16:38:30.448Z,102495.54
2019-05-14T16:41:01.259Z,102501.26
2019-05-14T16:43:32.550Z,102508.44
2019-05-14T16:46:03.193Z,102500.97
2019-05-14T16:48:36.295Z,102506.41
2019-05-14T16:51:08.711Z,102509.27
2019-05-14T16:53:38.568Z,102499.83
2019-05-14T16:56:08.837Z,102499.02
2019-05-14T16:58:39.030Z,102491.96
2019-05-14T17:01:10.096Z,102491.96
2019-05-14T17:03:43.166Z,102499.67
2019-05-14T17:06:13.447Z,102499.26
2019-05-14T17:08:43.933Z,102510.12
2019-05-14T17:11:14.387Z,102508.08
2019-05-14T17:13:44.731Z,102505.19
2019-05-14T17:16:19.291Z,102505.03
2019-05-14T17:18:54.197Z,102489.91
2019-05-14T17:21:25.887Z,102494.44
2019-05-14T17:23:58.104Z,102489.77
2019-05-14T17:26:28.731Z,102504.74
2019-05-14T17:28:59.762Z,102506.21
2019-05-14T17:31:39.579Z,102501.65
2019-05-14T17:34:11.561Z,102505.55
2019-05-14T17:36:41.761Z,102507.03
2019-05-14T17:39:12.089Z,102501.39
2019-05-14T17:41:42.314Z,102511.69
2019-05-14T17:44:12.528Z,102511.44
2019-05-14T17:46:43.832Z,102517.92
2019-05-14T17:49:19.985Z,102520.05
2019-05-14T17:51:50.276Z,102517.87
2019-05-14T17:54:20.552Z,102523.55
2019-05-14T17:56:50.731Z,102515.59
2019-05-14T17:59:20.893Z,102519.28
2019-05-14T18:01:52.621Z,102519.17
2019-05-14T18:04:28.570Z,102513.50
2019-05-14T18:06:59.317Z,102516.44
2019-05-14T18:09:29.565Z,102514.20
2019-05-14T18:12:00.098Z,102524.09
2019-05-14T18:14:33.115Z,102520.52
2019-05-14T18:17:05.751Z,102517.22
2019-05-14T18:19:37.958Z,102517.56
2019-05-14T18:22:09.480Z,102512.83
2019-05-14T18:24:41.010Z,102509.34
2019-05-14T18:27:11.420Z,102513.55
2019-05-14T18:29:41.929Z,102514.37
2019-05-14T18:32:16.417Z,102511.81
2019-05-14T18:34:49.642Z,102507.42
2019-05-14T18:37:19.990Z,102516.95
2019-05-14T18:39:50.268Z,102511.29
2019-05-14T18:42:20.521Z,102514.47
2019-05-14T18:44:53.608Z,102511.40
2019-05-14T18:47:29.005Z,102515.99
2019-05-14T18:50:05.091Z,102514.67
2019-05-14T18:52:39.972Z,102514.73
2019-05-14T18:55:12.032Z,102512.06
2019-05-14T18:57:42.555Z,102513.88
2019-05-14T19:00:20.383Z,102516.69
2019-05-14T19:02:53.504Z,102519.81
2019-05-14T19:05:25.813Z,102525.64
2019-05-14T19:07:59.219Z,102526.14
2019-05-14T19:10:29.494Z,102527.52
2019-05-14T19:13:00.547Z,102529.74
2019-05-14T19:15:30.729Z,102531.53
2019-05-14T19:18:09.100Z,102532.47
2019-05-14T19:20:39.464Z,102528.52
2019-05-14T19:23:09.756Z,102530.28
2019-05-14T19:25:40.021Z,102530.78
2019-05-14T19:28:10.800Z,102529.45
2019-05-14T19:30:42.491Z,102525.48
2019-05-14T19:33:12.895Z,102525.50
2019-05-14T19:35:45.412Z,102521.08
2019-05-14T19:38:17.966Z,102527.29
2019-05-14T19:40:48.508Z,102525.55
2019-05-14T19:43:19.206Z,102529.08
2019-05-14T19:45:49.412Z,102521.98
2019-05-14T19:48:19.663Z,102527.77
2019-05-14T19:50:49.906Z,102532.64
2019-05-14T19:53:20.296Z,102533.53
2019-05-14T19:55:50.651Z,102538.34
2019-05-14T19:58:20.972Z,102537.48
2019-05-14T20:00:51.132Z,102543.67
2019-05-14T20:03:21.686Z,102545.42
2019-05-14T20:05:52.125Z,102545.86
2019-05-14T20:08:22.466Z,102542.30
2019-05-14T20:10:52.772Z,102550.72
2019-05-14T20:13:23.261Z,102548.48
2019-05-14T20:15:55.397Z,102551.56
2019-05-14T20:18:25.830Z,102545.30
2019-05-14T20:20:59.146Z,102546.62
2019-05-14T20:23:29.535Z,102545.33
2019-05-14T20:25:59.863Z,102543.96
2019-05-14T20:28:30.076Z,102535.99
2019-05-14T20:31:00.320Z,102540.80
2019-05-14T20:33:30.499Z,102542.13
2019-05-14T20:36:03.345Z,102537.69
2019-05-14T20:38:33.670Z,102533.23
2019-05-14T20:41:03.859Z,102531.44
2019-05-14T20:43:34.011Z,102533.19
2019-05-14T20:46:04.160Z,102540.22
2019-05-14T20:48:39.048Z,102540.61
2019-05-14T20:51:09.108Z,102544.10
2019-05-14T20:53:39.795Z,102541.00
2019-05-14T20:56:10.010Z,102549.83
2019-05-14T20:58:40.242Z,102554.27
2019-05-14T21:01:11.356Z,102550.20
2019-05-14T21:03:44.045Z,102546.00
2019-05-14T21:06:13.814Z,102548.66
2019-05-14T21:08:44.001Z,102550.89
2019-05-14T21:11:14.233Z,102556.66
2019-05-14T21:13:44.551Z,102546.92
2019-05-14T21:16:18.148Z,102546.84
2019-05-14T21:18:48.817Z,102541.94
2019-05-14T21:21:19.125Z,102552.78
2019-05-14T21:23:49.437Z,102555.45
2019-05-14T21:26:19.629Z,102546.59
2019-05-14T21:28:49.822Z,102548.45
2019-05-14T21:31:20.077Z,102547.55
2019-05-14T21:33:50.213Z,102553.24
2019-05-14T21:36:20.479Z,102546.33
2019-05-14T21:38:50.665Z,102551.30
2019-05-14T21:41:21.000Z,102552.55
2019-05-14T21:43:51.183Z,102558.31
2019-05-14T21:46:21.376Z,102551.58
2019-05-14T21:48:51.760Z,102551.94
2019-05-14T21:51:22.064Z,102546.64
2019-05-14T21:53:52.281Z,102547.07
2019-05-14T21:56:22.454Z,102546.14
2019-05-14T21:58:52.628Z,102550.39
2019-05-14T22:01:22.877Z,102548.17
2019-05-14T22:03:59.139Z,102549.23
2019-05-14T22:06:29.918Z,102547.90
2019-05-14T22:09:00.030Z,102547.00
2019-05-14T22:11:30.187Z,102548.39
2019-05-14T22:14:00.353Z,102545.52
2019-05-14T22:16:30.582Z,102543.43
2019-05-14T22:19:00.767Z,102542.52
2019-05-14T22:21:30.969Z,102541.55
2019-05-14T22:24:01.610Z,102536.98
2019-05-14T22:26:31.781Z,102544.09
2019-05-14T22:29:01.962Z,102547.14
2019-05-14T22:31:32.130Z,102540.45
2019-05-14T22:34:02.279Z,102544.27
2019-05-14T22:36:34.793Z,102546.39
2019-05-14T22:39:06.697Z,102542.05
2019-05-14T22:41:38.316Z,102543.64
2019-05-14T22:44:09.552Z,102538.78
2019-05-14T22:46:40.292Z,102536.48
2019-05-14T22:49:11.851Z,102544.70
2019-05-14T22:51:42.045Z,102536.34
2019-05-14T22:54:12.183Z,102538.56
2019-05-14T22:56:42.302Z,102536.22
2019-05-14T22:59:12.460Z,102538.73
2019-05-14T23:01:42.622Z,102533.41
2019-05-14T23:04:12.823Z,102535.36
2019-05-14T23:06:42.990Z,102539.88
2019-05-14T23:09:16.237Z,102538.00
2019-05-14T23:11:48.018Z,102536.21
2019-05-14T23:14:18.612Z,102534.50
2019-05-14T23:16:49.224Z,102530.40
2019-05-14T23:19:19.374Z,102532.29
2019-05-14T23:21:49.554Z,102531.70
2019-05-14T23:24:19.703Z,102536.05
2019-05-14T23:26:49.885Z,102535.10
2019-05-14T23:29:20.081Z,102539.41
2019-05-14T23:31:50.276Z,102535.89
2019-05-14T23:34:20.498Z,102530.50
2019-05-14T23:36:50.619Z,102530.50
2019-05-14T23:39:22.072Z,102532.20
2019-05-14T23:41:52.430Z,102529.89
2019-05-14T23:44:22.662Z,102535.02
2019-05-14T23:46:52.841Z,102527.56
2019-05-14T23:49:23.020Z,102526.63
2019-05-14T23:51:53.225Z,102517.73
2019-05-14T23:54:23.818Z,102521.19
2019-05-14T23:56:53.969Z,102516.28
2019-05-14T23:59:25.181Z,102511.76
